Time;durP1;ratioP1;P1;durP2;ratioP2;P2;SDS_P1;SDS_P2;PMS_P1;PMS_P2;Temp;Humidity;BMP_temperature;BMP_pressure;BME280_temperature;BME280_humidity;BME280_pressure;Samples;Min_cycle;Max_cycle;Signal;HPM_P1;HPM_P2
2023/08/10 00:02:20;;;;;;;5.13;2.38;;;;;;;;;;4975415;28;20031;-71
2023/08/10 00:04:46;;;;;;;4.45;2.40;;;;;;;;;;4975048;28;20019;-70
2023/08/10 00:07:12;;;;;;;3.38;2.45;;;;;;;;;;4975080;28;20030;-70
2023/08/10 00:09:39;;;;;;;2.85;2.05;;;;;;;;;;4974915;28;20391;-71
2023/08/10 00:12:05;;;;;;;3.08;2.35;;;;;;;;;;4975012;28;20035;-71
2023/08/10 00:14:32;;;;;;;3.65;2.33;;;;;;;;;;4974336;28;20047;-71
2023/08/10 00:16:58;;;;;;;5.13;2.45;;;;;;;;;;4974399;28;20023;-71
2023/08/10 00:19:25;;;;;;;6.88;2.78;;;;;;;;;;4974858;28;20376;-71
2023/08/10 00:21:51;;;;;;;7.47;2.45;;;;;;;;;;4974225;28;20023;-71
2023/08/10 00:24:17;;;;;;;3.72;2.30;;;;;;;;;;4974768;28;20026;-71
2023/08/10 00:26:44;;;;;;;3.30;2.30;;;;;;;;;;4974339;28;20488;-71
2023/08/10 00:29:10;;;;;;;4.25;2.40;;;;;;;;;;4974087;28;20035;-71
2023/08/10 00:31:36;;;;;;;3.70;2.60;;;;;;;;;;4974664;28;20035;-71
2023/08/10 00:34:03;;;;;;;3.88;2.67;;;;;;;;;;4974275;28;20566;-71
2023/08/10 00:36:29;;;;;;;3.95;2.33;;;;;;;;;;4974799;28;20027;-70
2023/08/10 00:38:56;;;;;;;3.08;2.45;;;;;;;;;;4974259;28;20027;-71
2023/08/10 00:41:22;;;;;;;4.38;2.55;;;;;;;;;;4974605;28;20026;-71
2023/08/10 00:43:49;;;;;;;3.05;2.30;;;;;;;;;;4973747;28;20038;-71
2023/08/10 00:46:15;;;;;;;3.35;2.47;;;;;;;;;;4973015;28;20030;-71
2023/08/10 00:48:41;;;;;;;2.63;2.20;;;;;;;;;;4974106;28;20530;-71
2023/08/10 00:51:08;;;;;;;2.65;2.08;;;;;;;;;;4974049;28;20026;-71
2023/08/10 00:53:35;;;;;;;6.00;2.47;;;;;;;;;;4974088;28;20041;-71
2023/08/10 00:56:02;;;;;;;8.35;2.67;;;;;;;;;;4974156;28;20076;-70
2023/08/10 00:58:30;;;;;;;4.10;2.15;;;;;;;;;;4973790;28;20030;-71
2023/08/10 01:00:56;;;;;;;4.03;2.63;;;;;;;;;;4973821;28;20029;-71
2023/08/10 01:03:23;;;;;;;4.95;2.58;;;;;;;;;;4973915;28;20045;-71
2023/08/10 01:06:10;;;;;;;4.05;2.40;;;;;;;;;;4973860;28;20468;-71
2023/08/10 01:08:45;;;;;;;3.10;2.42;;;;;;;;;;4974200;28;20050;-71
2023/08/10 01:11:11;;;;;;;4.90;3.30;;;;;;;;;;4973651;28;20015;-71
2023/08/10 01:13:41;;;;;;;4.95;2.40;;;;;;;;;;4973301;28;20518;-71
2023/08/10 01:16:09;;;;;;;4.40;2.40;;;;;;;;;;4973917;28;20023;-71
2023/08/10 01:18:36;;;;;;;2.75;2.20;;;;;;;;;;4973700;28;20027;-70
2023/08/10 01:21:04;;;;;;;3.75;2.60;;;;;;;;;;4974064;28;20023;-70
2023/08/10 01:23:39;;;;;;;3.42;2.17;;;;;;;;;;4974125;28;20483;-71
2023/08/10 01:26:06;;;;;;;5.40;2.63;;;;;;;;;;4973677;28;20030;-71
2023/08/10 01:28:33;;;;;;;3.15;2.30;;;;;;;;;;4973370;28;20398;-71
2023/08/10 01:31:02;;;;;;;3.20;2.63;;;;;;;;;;4973663;28;20035;-71
2023/08/10 01:33:32;;;;;;;3.13;2.55;;;;;;;;;;4973500;28;20041;-71
2023/08/10 01:35:59;;;;;;;6.28;2.72;;;;;;;;;;4977480;28;20019;-71
2023/08/10 01:38:25;;;;;;;3.33;2.38;;;;;;;;;;4977775;28;20041;-71
2023/08/10 01:40:52;;;;;;;3.40;2.60;;;;;;;;;;4977108;28;20041;-71
2023/08/10 01:43:18;;;;;;;3.20;2.30;;;;;;;;;;4977758;28;20022;-71
2023/08/10 01:45:46;;;;;;;4.40;2.35;;;;;;;;;;4977446;28;20031;-71
2023/08/10 01:48:17;;;;;;;5.18;2.63;;;;;;;;;;4977425;28;20029;-70
2023/08/10 01:50:44;;;;;;;3.75;2.28;;;;;;;;;;4977504;28;20021;-71
2023/08/10 01:53:13;;;;;;;3.25;2.55;;;;;;;;;;4977154;28;20034;-71
2023/08/10 01:55:40;;;;;;;3.47;2.38;;;;;;;;;;4977400;28;20384;-71
2023/08/10 01:58:06;;;;;;;4.38;2.30;;;;;;;;;;4977336;28;20011;-70
2023/08/10 02:00:37;;;;;;;6.05;2.70;;;;;;;;;;4977328;28;20034;-71
2023/08/10 02:03:04;;;;;;;5.35;2.60;;;;;;;;;;4977202;28;20026;-70
2023/08/10 02:05:30;;;;;;;10.63;2.42;;;;;;;;;;4977288;28;20027;-71
2023/08/10 02:07:57;;;;;;;5.57;2.47;;;;;;;;;;4976884;28;20027;-71
2023/08/10 02:10:23;;;;;;;2.58;2.10;;;;;;;;;;4976703;28;20476;-71
2023/08/10 02:12:49;;;;;;;3.97;2.30;;;;;;;;;;4976761;28;20031;-70
2023/08/10 02:15:16;;;;;;;4.07;2.60;;;;;;;;;;4976826;28;20022;-70
2023/08/10 02:17:42;;;;;;;6.43;2.80;;;;;;;;;;4976570;28;20061;-71
2023/08/10 02:20:13;;;;;;;4.75;2.78;;;;;;;;;;4976949;28;20030;-71
2023/08/10 02:22:41;;;;;;;3.60;2.47;;;;;;;;;;4976920;28;20030;-71
2023/08/10 02:25:07;;;;;;;4.18;2.78;;;;;;;;;;4976368;28;20505;-70
2023/08/10 02:27:34;;;;;;;7.90;2.75;;;;;;;;;;4976834;28;20022;-70
2023/08/10 02:30:00;;;;;;;4.15;2.65;;;;;;;;;;4976975;28;20023;-71
2023/08/10 02:32:26;;;;;;;4.82;2.70;;;;;;;;;;4976438;28;20093;-71
2023/08/10 02:34:53;;;;;;;3.40;2.60;;;;;;;;;;4976882;28;20026;-70
2023/08/10 02:37:19;;;;;;;3.47;2.65;;;;;;;;;;4976365;28;20023;-71
2023/08/10 02:39:45;;;;;;;5.05;2.42;;;;;;;;;;4975082;28;20039;-71
2023/08/10 02:42:12;;;;;;;3.83;2.45;;;;;;;;;;4976772;28;20035;-71
2023/08/10 02:44:38;;;;;;;3.65;2.50;;;;;;;;;;4976349;28;20510;-70
2023/08/10 02:47:04;;;;;;;3.95;2.55;;;;;;;;;;4976285;28;20061;-70
2023/08/10 02:49:30;;;;;;;5.90;2.85;;;;;;;;;;4976325;28;20365;-71
2023/08/10 02:51:57;;;;;;;5.90;2.67;;;;;;;;;;4976673;28;20023;-70
2023/08/10 02:54:23;;;;;;;5.82;2.40;;;;;;;;;;4975875;28;20031;-71
2023/08/10 02:56:49;;;;;;;4.25;2.47;;;;;;;;;;4976324;28;20033;-70
2023/08/10 02:59:16;;;;;;;4.47;2.38;;;;;;;;;;4976273;28;20046;-70
2023/08/10 03:01:45;;;;;;;3.53;2.53;;;;;;;;;;4976286;28;20442;-70
2023/08/10 03:04:12;;;;;;;3.58;2.60;;;;;;;;;;4976245;28;20464;-71
2023/08/10 03:06:39;;;;;;;3.40;2.88;;;;;;;;;;4976318;28;20033;-71
2023/08/10 03:09:06;;;;;;;3.97;2.83;;;;;;;;;;4975499;28;20507;-71
2023/08/10 03:11:32;;;;;;;5.70;2.67;;;;;;;;;;4975899;28;20033;-71
2023/08/10 03:13:59;;;;;;;4.07;2.85;;;;;;;;;;4975804;28;20434;-71
2023/08/10 03:16:25;;;;;;;4.80;2.58;;;;;;;;;;4975537;28;20030;-71
2023/08/10 03:18:51;;;;;;;4.25;2.33;;;;;;;;;;4975632;28;20498;-71
2023/08/10 03:21:18;;;;;;;9.90;2.60;;;;;;;;;;4975972;28;20035;-70
2023/08/10 03:23:46;;;;;;;3.20;2.70;;;;;;;;;;4975515;28;20476;-71
2023/08/10 03:26:12;;;;;;;5.13;2.83;;;;;;;;;;4975804;28;20480;-71
2023/08/10 03:28:39;;;;;;;3.10;2.40;;;;;;;;;;4974506;28;20439;-71
2023/08/10 03:31:05;;;;;;;5.05;2.70;;;;;;;;;;4975753;28;20048;-71
2023/08/10 03:33:32;;;;;;;4.85;2.60;;;;;;;;;;4975806;28;20049;-70
2023/08/10 03:35:58;;;;;;;5.47;2.72;;;;;;;;;;4975431;28;20035;-71
2023/08/10 03:38:24;;;;;;;3.60;2.60;;;;;;;;;;4975389;28;20033;-70
2023/08/10 03:40:50;;;;;;;3.10;2.40;;;;;;;;;;4975459;28;20030;-71
2023/08/10 03:43:17;;;;;;;3.05;2.63;;;;;;;;;;4975301;28;20394;-70
2023/08/10 03:45:44;;;;;;;5.53;3.05;;;;;;;;;;4975338;28;20391;-71
2023/08/10 03:48:10;;;;;;;3.42;2.65;;;;;;;;;;4975120;28;20034;-71
2023/08/10 03:50:36;;;;;;;7.97;2.55;;;;;;;;;;4975184;28;20019;-71
2023/08/10 03:53:03;;;;;;;6.50;2.70;;;;;;;;;;4974769;28;20383;-70
2023/08/10 03:55:29;;;;;;;2.90;2.47;;;;;;;;;;4974915;28;20475;-71
2023/08/10 03:57:55;;;;;;;4.80;2.60;;;;;;;;;;4974679;28;20031;-70
2023/08/10 04:00:21;;;;;;;6.10;2.72;;;;;;;;;;4975205;28;20033;-71
2023/08/10 04:02:48;;;;;;;5.82;2.95;;;;;;;;;;4974865;28;20033;-71
2023/08/10 04:05:14;;;;;;;6.90;2.67;;;;;;;;;;4974865;28;20520;-71
2023/08/10 04:07:40;;;;;;;8.00;2.90;;;;;;;;;;4974747;28;20476;-70
2023/08/10 04:10:08;;;;;;;4.72;2.65;;;;;;;;;;4974921;28;20030;-71
2023/08/10 04:12:37;;;;;;;5.10;2.97;;;;;;;;;;4974658;28;20055;-71
2023/08/10 04:15:06;;;;;;;4.05;2.80;;;;;;;;;;4974748;28;20089;-71
2023/08/10 04:17:33;;;;;;;6.00;2.65;;;;;;;;;;4974419;28;20019;-71
2023/08/10 04:19:59;;;;;;;3.88;2.75;;;;;;;;;;4974659;28;20042;-71
2023/08/10 04:22:25;;;;;;;4.25;2.58;;;;;;;;;;4974347;28;20027;-71
2023/08/10 04:24:52;;;;;;;6.45;3.10;;;;;;;;;;4974409;28;20503;-71
2023/08/10 04:27:18;;;;;;;4.60;2.85;;;;;;;;;;4974559;28;20027;-70
2023/08/10 04:29:45;;;;;;;4.97;2.60;;;;;;;;;;4974578;28;20542;-71
2023/08/10 04:32:12;;;;;;;5.25;3.08;;;;;;;;;;4974623;28;20026;-70
2023/08/10 04:34:39;;;;;;;4.72;2.80;;;;;;;;;;4974436;28;20031;-70
2023/08/10 04:37:05;;;;;;;5.07;2.85;;;;;;;;;;4974059;28;20033;-71
2023/08/10 04:39:32;;;;;;;5.68;2.90;;;;;;;;;;4974507;28;20033;-71
2023/08/10 04:41:59;;;;;;;7.93;3.10;;;;;;;;;;4974538;28;20027;-71
2023/08/10 04:44:25;;;;;;;7.50;2.95;;;;;;;;;;4974329;28;20026;-71
2023/08/10 04:46:52;;;;;;;6.68;3.03;;;;;;;;;;4974654;28;20033;-70
2023/08/10 04:49:18;;;;;;;6.43;3.20;;;;;;;;;;4972529;28;20399;-70
2023/08/10 04:51:44;;;;;;;5.32;2.85;;;;;;;;;;4974142;28;20505;-71
2023/08/10 04:54:11;;;;;;;4.22;2.67;;;;;;;;;;4973979;28;20046;-70
2023/08/10 04:56:37;;;;;;;4.05;2.80;;;;;;;;;;4973948;28;20498;-70
2023/08/10 04:59:04;;;;;;;4.38;2.97;;;;;;;;;;4974090;28;20435;-71
2023/08/10 05:01:30;;;;;;;4.60;2.85;;;;;;;;;;4973900;28;20066;-71
2023/08/10 05:03:57;;;;;;;4.35;2.92;;;;;;;;;;4973769;28;20023;-70
2023/08/10 05:06:23;;;;;;;3.60;2.58;;;;;;;;;;4973886;28;20472;-70
2023/08/10 05:08:49;;;;;;;5.45;3.25;;;;;;;;;;4974083;28;20027;-70
2023/08/10 05:11:16;;;;;;;14.30;2.85;;;;;;;;;;4973761;28;20105;-70
2023/08/10 05:13:43;;;;;;;4.15;3.00;;;;;;;;;;4973538;28;20047;-70
2023/08/10 05:16:09;;;;;;;4.70;2.70;;;;;;;;;;4973963;28;20031;-70
2023/08/10 05:18:35;;;;;;;3.85;2.65;;;;;;;;;;4973506;28;20288;-71
2023/08/10 05:21:02;;;;;;;3.45;2.35;;;;;;;;;;4973634;28;20476;-71
2023/08/10 05:23:28;;;;;;;4.97;2.88;;;;;;;;;;4973819;28;20026;-70
2023/08/10 05:25:55;;;;;;;6.88;2.58;;;;;;;;;;4974018;28;20053;-70
2023/08/10 05:28:22;;;;;;;4.43;2.78;;;;;;;;;;4973864;28;20023;-71
2023/08/10 05:30:48;;;;;;;5.95;3.00;;;;;;;;;;4973906;28;20041;-71
2023/08/10 05:33:14;;;;;;;4.00;2.70;;;;;;;;;;4973566;28;20038;-70
2023/08/10 05:35:41;;;;;;;5.65;3.17;;;;;;;;;;4973718;28;20031;-71
2023/08/10 05:38:08;;;;;;;4.57;3.08;;;;;;;;;;4973764;28;20026;-71
2023/08/10 05:40:34;;;;;;;7.80;3.17;;;;;;;;;;4973838;28;20030;-71
2023/08/10 05:43:00;;;;;;;8.30;3.17;;;;;;;;;;4973561;28;20069;-70
2023/08/10 05:45:27;;;;;;;5.38;2.95;;;;;;;;;;4973513;28;20041;-71
2023/08/10 05:47:53;;;;;;;6.53;2.92;;;;;;;;;;4973203;28;20023;-71
2023/08/10 05:50:20;;;;;;;4.38;2.80;;;;;;;;;;4973866;28;20031;-70
2023/08/10 05:52:46;;;;;;;6.30;2.78;;;;;;;;;;4973285;28;20043;-71
2023/08/10 05:55:14;;;;;;;3.75;3.10;;;;;;;;;;4973444;28;20035;-70
2023/08/10 05:57:41;;;;;;;3.20;2.90;;;;;;;;;;4973289;28;20027;-71
2023/08/10 06:00:08;;;;;;;5.20;2.78;;;;;;;;;;4972449;28;20041;-71
2023/08/10 06:02:34;;;;;;;5.47;2.83;;;;;;;;;;4973736;28;20025;-70
2023/08/10 06:05:00;;;;;;;6.20;2.85;;;;;;;;;;4973493;28;20030;-70
2023/08/10 06:07:27;;;;;;;5.85;2.83;;;;;;;;;;4973181;28;20027;-71
2023/08/10 06:09:53;;;;;;;6.18;3.10;;;;;;;;;;4973366;28;20025;-70
2023/08/10 06:12:19;;;;;;;3.67;2.53;;;;;;;;;;4973300;28;20031;-71
2023/08/10 06:14:46;;;;;;;3.42;2.80;;;;;;;;;;4973016;28;20100;-70
2023/08/10 06:17:12;;;;;;;7.03;2.75;;;;;;;;;;4972675;28;20023;-70
2023/08/10 06:19:39;;;;;;;5.65;2.95;;;;;;;;;;4973415;28;20435;-70
2023/08/10 06:22:05;;;;;;;6.10;2.90;;;;;;;;;;4973526;28;20027;-74
2023/08/10 06:24:32;;;;;;;3.15;2.60;;;;;;;;;;4976380;28;20469;-74
2023/08/10 06:26:59;;;;;;;3.45;2.75;;;;;;;;;;4976488;28;20034;-74
2023/08/10 06:29:25;;;;;;;4.60;2.97;;;;;;;;;;4976203;28;20039;-75
2023/08/10 06:31:54;;;;;;;7.72;2.67;;;;;;;;;;4975372;28;20027;-74
2023/08/10 06:34:20;;;;;;;7.00;3.00;;;;;;;;;;4975799;28;20041;-73
2023/08/10 06:36:46;;;;;;;5.95;2.83;;;;;;;;;;4971419;28;20022;-74
2023/08/10 06:39:13;;;;;;;5.82;2.75;;;;;;;;;;4974240;28;20411;-74
2023/08/10 06:41:39;;;;;;;8.27;3.17;;;;;;;;;;4975035;28;20033;-73
2023/08/10 06:44:06;;;;;;;6.25;2.83;;;;;;;;;;4975956;28;20057;-74
2023/08/10 06:46:32;;;;;;;4.80;2.92;;;;;;;;;;4975902;28;20019;-73
2023/08/10 06:48:58;;;;;;;13.65;2.72;;;;;;;;;;4974849;28;20033;-72
2023/08/10 06:51:25;;;;;;;4.80;2.70;;;;;;;;;;4975253;28;20030;-73
2023/08/10 06:53:51;;;;;;;9.18;2.63;;;;;;;;;;4975601;28;20411;-73
2023/08/10 06:56:18;;;;;;;5.75;3.33;;;;;;;;;;4974611;28;20033;-74
2023/08/10 06:58:44;;;;;;;5.97;3.05;;;;;;;;;;4960800;28;20031;-74
2023/08/10 07:01:11;;;;;;;4.35;2.90;;;;;;;;;;4970025;28;20027;-74
2023/08/10 07:03:38;;;;;;;6.13;3.15;;;;;;;;;;4975499;28;20044;-73
2023/08/10 07:06:04;;;;;;;5.35;2.60;;;;;;;;;;4974829;28;20027;-75
2023/08/10 07:08:31;;;;;;;5.85;3.17;;;;;;;;;;4972726;28;20488;-73
2023/08/10 07:11:00;;;;;;;4.00;2.85;;;;;;;;;;4975159;28;20042;-73
2023/08/10 07:13:27;;;;;;;4.20;3.08;;;;;;;;;;4974590;28;20050;-74
2023/08/10 07:15:53;;;;;;;6.13;2.70;;;;;;;;;;4973823;28;20089;-74
2023/08/10 07:18:19;;;;;;;4.13;3.08;;;;;;;;;;4973919;28;20038;-73
2023/08/10 07:20:45;;;;;;;5.80;2.92;;;;;;;;;;4974058;28;20438;-74
2023/08/10 07:23:14;;;;;;;5.40;3.10;;;;;;;;;;4974710;28;20054;-74
2023/08/10 07:25:40;;;;;;;6.25;3.00;;;;;;;;;;4974458;28;20021;-74
2023/08/10 07:28:07;;;;;;;3.58;2.97;;;;;;;;;;4973901;28;20410;-74
2023/08/10 07:30:33;;;;;;;4.63;2.85;;;;;;;;;;4973680;28;20038;-74
2023/08/10 07:32:59;;;;;;;3.60;2.90;;;;;;;;;;4971578;28;20423;-71
2023/08/10 07:35:26;;;;;;;10.30;3.03;;;;;;;;;;4973851;28;20403;-75
2023/08/10 07:37:52;;;;;;;5.32;2.90;;;;;;;;;;4958794;28;20473;-74
2023/08/10 07:40:19;;;;;;;4.28;3.15;;;;;;;;;;4956059;28;20054;-73
2023/08/10 07:42:45;;;;;;;6.53;2.85;;;;;;;;;;4965397;28;20033;-71
2023/08/10 07:45:11;;;;;;;5.90;3.22;;;;;;;;;;4967777;28;20065;-72
2023/08/10 07:47:38;;;;;;;4.72;3.15;;;;;;;;;;4973785;28;20038;-72
2023/08/10 07:50:05;;;;;;;5.07;2.78;;;;;;;;;;4973823;28;20031;-72
2023/08/10 07:52:32;;;;;;;3.72;2.92;;;;;;;;;;4973442;28;20038;-73
2023/08/10 07:54:58;;;;;;;4.85;2.95;;;;;;;;;;4973710;28;20031;-72
2023/08/10 07:57:25;;;;;;;4.07;2.70;;;;;;;;;;4973497;28;20034;-73
2023/08/10 07:59:51;;;;;;;5.75;2.90;;;;;;;;;;4973330;28;20403;-73
2023/08/10 08:02:17;;;;;;;4.88;2.60;;;;;;;;;;4972057;28;20403;-73
2023/08/10 08:04:44;;;;;;;6.72;3.20;;;;;;;;;;4973344;28;20049;-73
2023/08/10 08:07:10;;;;;;;11.75;3.63;;;;;;;;;;4973272;28;20057;-73
2023/08/10 08:09:36;;;;;;;4.90;2.90;;;;;;;;;;4972404;28;20027;-71
2023/08/10 08:12:03;;;;;;;7.30;3.20;;;;;;;;;;4971845;28;20499;-69
2023/08/10 08:14:29;;;;;;;5.05;2.95;;;;;;;;;;4931389;28;1216001;-69
2023/08/10 08:16:55;;;;;;;7.22;2.70;;;;;;;;;;4973692;28;20031;-68
2023/08/10 08:19:21;;;;;;;6.55;3.28;;;;;;;;;;4973617;28;20480;-69
2023/08/10 08:21:48;;;;;;;4.68;2.63;;;;;;;;;;4973613;28;20381;-70
2023/08/10 08:24:15;;;;;;;4.15;2.78;;;;;;;;;;4973894;28;20029;-70
2023/08/10 08:26:41;;;;;;;10.48;2.97;;;;;;;;;;4973797;28;20035;-69
2023/08/10 08:29:08;;;;;;;3.50;3.05;;;;;;;;;;4973608;28;20034;-70
2023/08/10 08:31:35;;;;;;;5.30;3.22;;;;;;;;;;4973524;28;20104;-69
2023/08/10 08:34:01;;;;;;;7.40;2.60;;;;;;;;;;4973828;28;20500;-69
2023/08/10 08:36:28;;;;;;;11.48;2.75;;;;;;;;;;4971309;28;20035;-69
2023/08/10 08:38:54;;;;;;;5.60;2.97;;;;;;;;;;4969565;28;20037;-69
2023/08/10 08:41:21;;;;;;;5.50;2.75;;;;;;;;;;4972831;28;20492;-69
2023/08/10 08:43:48;;;;;;;6.68;2.75;;;;;;;;;;4973129;28;20394;-69
2023/08/10 08:46:16;;;;;;;4.03;2.45;;;;;;;;;;4973499;28;20036;-68
2023/08/10 08:48:43;;;;;;;5.93;2.78;;;;;;;;;;4973600;28;20038;-69
2023/08/10 08:51:09;;;;;;;5.47;3.00;;;;;;;;;;4954650;29;20015;-68
2023/08/10 08:53:37;;;;;;;5.22;2.60;;;;;;;;;;4954427;29;20051;-69
2023/08/10 08:56:03;;;;;;;5.82;2.75;;;;;;;;;;4953883;28;20038;-69
2023/08/10 08:58:29;;;;;;;5.32;2.83;;;;;;;;;;4967415;28;20015;-70
2023/08/10 09:00:56;;;;;;;2.70;2.50;;;;;;;;;;4973666;28;20045;-70
2023/08/10 09:03:23;;;;;;;3.92;2.50;;;;;;;;;;4973494;28;20011;-70
2023/08/10 09:05:50;;;;;;;3.03;2.40;;;;;;;;;;4973592;28;20031;-69
2023/08/10 09:08:17;;;;;;;3.28;2.50;;;;;;;;;;4973812;28;20046;-69
2023/08/10 09:10:45;;;;;;;5.65;2.60;;;;;;;;;;4972056;28;20039;-70
2023/08/10 09:13:12;;;;;;;6.28;2.70;;;;;;;;;;4972892;28;20639;-70
2023/08/10 09:15:38;;;;;;;5.50;2.53;;;;;;;;;;4973520;28;20023;-70
2023/08/10 09:18:06;;;;;;;3.10;2.80;;;;;;;;;;4976151;28;20034;-69
2023/08/10 09:20:32;;;;;;;8.13;2.63;;;;;;;;;;4973150;28;20035;-70
2023/08/10 09:22:59;;;;;;;10.52;2.65;;;;;;;;;;4973137;28;20501;-69
2023/08/10 09:25:26;;;;;;;6.07;2.80;;;;;;;;;;4972361;28;20031;-69
2023/08/10 09:27:53;;;;;;;3.13;2.78;;;;;;;;;;4972630;28;20023;-71
2023/08/10 09:30:20;;;;;;;3.60;2.78;;;;;;;;;;4973000;28;20025;-69
2023/08/10 09:32:46;;;;;;;3.80;3.05;;;;;;;;;;4971077;28;20034;-70
2023/08/10 09:35:16;;;;;;;5.60;2.90;;;;;;;;;;4973334;28;20026;-69
2023/08/10 09:37:43;;;;;;;4.10;3.13;;;;;;;;;;4972872;28;20023;-70
2023/08/10 09:40:14;;;;;;;3.30;3.00;;;;;;;;;;4972321;28;20023;-69
2023/08/10 09:42:40;;;;;;;3.30;2.83;;;;;;;;;;4972949;28;20015;-68
2023/08/10 09:45:08;;;;;;;3.10;2.80;;;;;;;;;;4972834;28;20399;-68
2023/08/10 09:47:36;;;;;;;3.67;2.75;;;;;;;;;;4970009;28;20504;-69
2023/08/10 09:50:05;;;;;;;3.65;2.70;;;;;;;;;;4963539;28;20035;-69
2023/08/10 09:52:33;;;;;;;4.20;2.83;;;;;;;;;;4972593;28;20472;-70
2023/08/10 09:55:00;;;;;;;11.90;3.10;;;;;;;;;;4972868;28;20031;-69
2023/08/10 09:57:30;;;;;;;4.15;2.80;;;;;;;;;;4976653;28;20094;-70
2023/08/10 09:59:56;;;;;;;4.88;2.67;;;;;;;;;;4976804;28;20429;-69
2023/08/10 10:02:23;;;;;;;2.75;2.55;;;;;;;;;;4965159;28;20388;-70
2023/08/10 10:04:50;;;;;;;3.38;2.70;;;;;;;;;;4976914;28;20039;-69
2023/08/10 10:07:21;;;;;;;4.57;3.13;;;;;;;;;;4976819;28;20027;-69
2023/08/10 10:09:50;;;;;;;14.10;3.28;;;;;;;;;;4976416;28;20035;-69
2023/08/10 10:12:16;;;;;;;8.45;3.20;;;;;;;;;;4976732;28;20369;-69
2023/08/10 10:14:44;;;;;;;5.63;2.85;;;;;;;;;;4976314;28;20109;-69
2023/08/10 10:17:11;;;;;;;3.75;2.75;;;;;;;;;;4983080;28;20028;-70
2023/08/10 10:19:38;;;;;;;6.68;2.95;;;;;;;;;;4976596;28;20035;-70
2023/08/10 10:22:05;;;;;;;3.75;3.10;;;;;;;;;;4976559;28;20031;-70
2023/08/10 10:24:32;;;;;;;3.28;2.97;;;;;;;;;;4974646;28;20031;-70
2023/08/10 10:27:08;;;;;;;7.93;3.10;;;;;;;;;;4976379;28;20023;-70
2023/08/10 10:29:51;;;;;;;5.20;3.20;;;;;;;;;;4976540;28;20023;-70
2023/08/10 10:32:18;;;;;;;6.47;3.08;;;;;;;;;;4976285;28;20030;-70
2023/08/10 10:34:46;;;;;;;5.03;2.90;;;;;;;;;;4976504;28;20041;-69
2023/08/10 10:37:12;;;;;;;5.50;3.33;;;;;;;;;;4976019;28;20488;-70
2023/08/10 10:39:42;;;;;;;3.65;3.30;;;;;;;;;;4976183;28;20045;-70
2023/08/10 10:42:12;;;;;;;3.72;3.00;;;;;;;;;;4976494;28;20041;-69
2023/08/10 10:44:58;;;;;;;5.43;2.65;;;;;;;;;;4976370;28;20022;-69
2023/08/10 10:47:34;;;;;;;4.70;3.03;;;;;;;;;;4976160;28;20458;-70
2023/08/10 10:50:00;;;;;;;6.68;3.60;;;;;;;;;;4975994;28;20033;-70
2023/08/10 10:52:36;;;;;;;9.82;3.15;;;;;;;;;;4975544;28;20015;-69
2023/08/10 10:55:06;;;;;;;3.50;3.00;;;;;;;;;;4975767;28;20097;-69
2023/08/10 10:57:32;;;;;;;3.53;2.75;;;;;;;;;;4975386;28;20030;-70
2023/08/10 10:59:59;;;;;;;9.38;2.97;;;;;;;;;;4976055;28;20033;-69
2023/08/10 11:02:27;;;;;;;5.13;2.85;;;;;;;;;;4976283;28;20034;-69
2023/08/10 11:04:53;;;;;;;6.63;2.92;;;;;;;;;;4976258;28;20027;-69
2023/08/10 11:07:20;;;;;;;4.65;3.00;;;;;;;;;;4976101;28;20026;-69
2023/08/10 11:09:46;;;;;;;4.07;2.60;;;;;;;;;;4976337;28;20029;-70
2023/08/10 11:12:12;;;;;;;6.63;3.22;;;;;;;;;;4975743;28;20033;-69
2023/08/10 11:14:41;;;;;;;4.38;3.17;;;;;;;;;;4975879;28;20039;-69
2023/08/10 11:17:11;;;;;;;4.83;3.33;;;;;;;;;;4975700;28;20027;-70
2023/08/10 11:19:37;;;;;;;4.40;3.10;;;;;;;;;;4975878;28;20025;-69
2023/08/10 11:22:04;;;;;;;8.50;3.13;;;;;;;;;;4975632;28;20030;-69
2023/08/10 11:24:30;;;;;;;7.80;3.20;;;;;;;;;;4975853;28;20019;-70
2023/08/10 11:26:57;;;;;;;9.88;3.53;;;;;;;;;;4975486;28;20033;-70
2023/08/10 11:29:24;;;;;;;5.55;3.40;;;;;;;;;;4975502;28;20033;-69
2023/08/10 11:31:50;;;;;;;7.97;3.65;;;;;;;;;;4975447;28;20492;-69
2023/08/10 11:34:18;;;;;;;8.00;3.60;;;;;;;;;;4975825;28;20500;-69
2023/08/10 11:36:45;;;;;;;7.18;3.55;;;;;;;;;;4972980;28;20026;-69
2023/08/10 11:39:11;;;;;;;6.53;3.42;;;;;;;;;;4972667;28;20041;-69
2023/08/10 11:41:41;;;;;;;9.55;3.33;;;;;;;;;;4974191;28;20022;-68
2023/08/10 11:44:07;;;;;;;5.72;3.35;;;;;;;;;;4974594;28;20026;-69
2023/08/10 11:46:34;;;;;;;5.07;3.20;;;;;;;;;;4973851;28;20022;-69
2023/08/10 11:49:00;;;;;;;9.75;3.45;;;;;;;;;;4974730;28;20053;-69
2023/08/10 11:51:33;;;;;;;5.38;3.47;;;;;;;;;;4974240;28;20411;-69
2023/08/10 11:54:07;;;;;;;9.30;3.63;;;;;;;;;;4972957;28;20042;-67
2023/08/10 11:56:34;;;;;;;7.70;3.70;;;;;;;;;;4974345;28;20085;-69
2023/08/10 11:59:14;;;;;;;7.95;3.28;;;;;;;;;;4974834;28;20055;-70
2023/08/10 12:01:40;;;;;;;;;;;;;;;;;;4975071;28;20080;-69
2023/08/10 12:04:11;;;;;;;6.65;3.70;;;;;;;;;;4974186;28;19906;-69
2023/08/10 12:06:41;;;;;;;11.70;3.70;;;;;;;;;;4973685;28;20031;-69
2023/08/10 12:09:08;;;;;;;6.68;3.70;;;;;;;;;;4974301;28;20030;-70
2023/08/10 12:11:34;;;;;;;9.77;3.90;;;;;;;;;;4975010;28;20014;-68
2023/08/10 12:14:01;;;;;;;5.53;3.65;;;;;;;;;;4973960;28;20109;-69
2023/08/10 12:16:27;;;;;;;6.10;3.72;;;;;;;;;;4977487;28;20038;-68
2023/08/10 12:18:54;;;;;;;15.35;4.03;;;;;;;;;;4976910;28;20039;-68
2023/08/10 12:21:20;;;;;;;6.70;3.55;;;;;;;;;;4972263;28;20033;-67
2023/08/10 12:23:46;;;;;;;13.20;3.97;;;;;;;;;;4971959;28;20023;-69
2023/08/10 12:26:13;;;;;;;12.85;4.47;;;;;;;;;;4973157;28;20109;-69
2023/08/10 12:28:39;;;;;;;6.78;3.85;;;;;;;;;;4973260;28;20095;-69
2023/08/10 12:31:06;;;;;;;10.93;3.97;;;;;;;;;;4974207;28;20038;-69
2023/08/10 12:33:33;;;;;;;8.10;4.03;;;;;;;;;;4973173;28;20027;-69
2023/08/10 12:35:59;;;;;;;12.63;3.95;;;;;;;;;;4973886;28;20034;-69
2023/08/10 12:38:25;;;;;;;6.38;3.83;;;;;;;;;;4974152;28;20027;-69
2023/08/10 12:40:52;;;;;;;11.07;3.92;;;;;;;;;;4974103;28;20034;-69
2023/08/10 12:43:20;;;;;;;7.18;3.72;;;;;;;;;;4972663;28;20025;-69
2023/08/10 12:45:46;;;;;;;7.43;3.88;;;;;;;;;;4972354;28;20045;-69
2023/08/10 12:48:12;;;;;;;8.25;4.25;;;;;;;;;;4967862;28;20037;-68
2023/08/10 12:50:39;;;;;;;11.32;3.95;;;;;;;;;;4973338;28;20037;-69
2023/08/10 12:53:05;;;;;;;8.18;3.78;;;;;;;;;;4973634;28;20022;-69
2023/08/10 12:55:32;;;;;;;10.45;4.25;;;;;;;;;;4973604;28;20049;-70
2023/08/10 12:57:58;;;;;;;10.05;4.20;;;;;;;;;;4973757;28;20480;-69
2023/08/10 13:00:26;;;;;;;13.38;4.03;;;;;;;;;;4973552;28;20030;-69
2023/08/10 13:02:52;;;;;;;9.25;3.90;;;;;;;;;;4972276;28;20033;-69
2023/08/10 13:05:19;;;;;;;7.40;3.90;;;;;;;;;;4973223;28;20417;-68
2023/08/10 13:07:46;;;;;;;11.70;4.50;;;;;;;;;;4973626;28;20019;-69
2023/08/10 13:10:14;;;;;;;11.77;3.88;;;;;;;;;;4973173;28;20027;-68
2023/08/10 13:12:42;;;;;;;9.18;4.25;;;;;;;;;;4973349;28;20395;-71
2023/08/10 13:15:08;;;;;;;8.95;4.25;;;;;;;;;;4972729;28;20045;-69
2023/08/10 13:17:35;;;;;;;7.53;4.20;;;;;;;;;;4971627;28;20019;-71
2023/08/10 13:20:03;;;;;;;9.98;4.07;;;;;;;;;;4973030;28;20041;-71
2023/08/10 13:22:30;;;;;;;11.63;4.18;;;;;;;;;;4973230;28;20051;-69
2023/08/10 13:24:57;;;;;;;10.10;4.22;;;;;;;;;;4973073;28;20026;-71
2023/08/10 13:27:23;;;;;;;8.68;4.25;;;;;;;;;;4973202;28;20058;-71
2023/08/10 13:29:50;;;;;;;12.38;4.03;;;;;;;;;;4972942;28;20518;-71
2023/08/10 13:32:17;;;;;;;14.60;4.85;;;;;;;;;;4976639;28;20019;-71
2023/08/10 13:34:43;;;;;;;13.52;4.43;;;;;;;;;;4976355;28;20035;-70
2023/08/10 13:37:09;;;;;;;14.30;4.18;;;;;;;;;;4977345;28;20027;-70
2023/08/10 13:39:36;;;;;;;11.45;4.15;;;;;;;;;;4977315;28;20041;-71
2023/08/10 13:42:02;;;;;;;10.63;4.28;;;;;;;;;;4977006;28;20093;-71
2023/08/10 13:44:28;;;;;;;17.45;4.45;;;;;;;;;;4977197;28;20027;-71
2023/08/10 13:46:55;;;;;;;14.13;4.20;;;;;;;;;;4976583;28;20049;-70
2023/08/10 13:49:22;;;;;;;9.88;4.20;;;;;;;;;;4977099;28;20042;-71
2023/08/10 13:51:48;;;;;;;10.55;4.05;;;;;;;;;;4976817;28;20065;-70
2023/08/10 13:54:14;;;;;;;10.48;4.13;;;;;;;;;;4976779;28;20023;-71
2023/08/10 13:57:00;;;;;;;14.82;4.47;;;;;;;;;;4977105;28;20027;-71
2023/08/10 13:59:28;;;;;;;13.38;4.25;;;;;;;;;;4977038;28;20043;-71
2023/08/10 14:01:54;;;;;;;17.45;4.38;;;;;;;;;;4976266;28;20019;-72
2023/08/10 14:04:21;;;;;;;12.40;4.05;;;;;;;;;;4976959;28;20026;-71
2023/08/10 14:06:48;;;;;;;14.05;4.10;;;;;;;;;;4976827;28;20023;-71
2023/08/10 14:09:15;;;;;;;14.65;4.03;;;;;;;;;;4976737;28;20023;-70
2023/08/10 14:11:43;;;;;;;10.63;3.88;;;;;;;;;;4976689;28;20088;-70
2023/08/10 14:14:10;;;;;;;12.32;4.03;;;;;;;;;;4976289;28;20050;-71
2023/08/10 14:16:37;;;;;;;12.85;3.80;;;;;;;;;;4975822;28;20023;-71
2023/08/10 14:19:04;;;;;;;13.77;4.38;;;;;;;;;;4976271;28;20510;-70
2023/08/10 14:21:30;;;;;;;10.20;3.85;;;;;;;;;;4976362;28;20027;-70
2023/08/10 14:23:58;;;;;;;13.73;4.03;;;;;;;;;;4974445;28;20023;-70
2023/08/10 14:26:25;;;;;;;11.27;3.78;;;;;;;;;;4971319;28;20049;-72
2023/08/10 14:28:51;;;;;;;13.52;4.00;;;;;;;;;;4975883;28;20030;-71
2023/08/10 14:31:17;;;;;;;12.73;4.13;;;;;;;;;;4961724;28;20025;-71
2023/08/10 14:33:43;;;;;;;10.13;3.75;;;;;;;;;;4975103;28;20045;-69
2023/08/10 14:36:11;;;;;;;14.05;3.70;;;;;;;;;;4975454;28;20514;-70
2023/08/10 14:38:37;;;;;;;12.20;4.25;;;;;;;;;;4975928;28;20561;-70
2023/08/10 14:41:04;;;;;;;15.27;4.20;;;;;;;;;;4975393;28;20077;-71